Time;durP1;ratioP1;P1;durP2;ratioP2;P2;SDS_P1;SDS_P2;PMS_P1;PMS_P2;Temp;Humidity;BMP_temperature;BMP_pressure;BME280_temperature;BME280_humidity;BME280_pressure;Samples;Min_cycle;Max_cycle;Signal;HPM_P1;HPM_P2
2022/12/12 00:00:51;;;;;;;0.50;0.50;;;;;;;18.61;60.40;97610.03;2090344;28;20127;-72
2022/12/12 00:01:54;;;;;;;0.90;0.73;;;;;;;18.62;60.06;97606.31;2089066;28;20052;-72
2022/12/12 00:02:56;;;;;;;0.82;0.80;;;;;;;18.61;60.42;97601.97;2090117;28;20082;-71
2022/12/12 00:03:59;;;;;;;0.60;0.60;;;;;;;18.61;60.48;97605.50;2089480;28;20076;-71
2022/12/12 00:05:00;;;;;;;0.75;0.55;;;;;;;18.60;60.57;97597.66;2089695;28;20090;-72
2022/12/12 00:06:03;;;;;;;0.85;0.60;;;;;;;18.59;60.25;97601.41;2086629;28;20048;-72
2022/12/12 00:07:06;;;;;;;1.23;1.10;;;;;;;18.60;60.37;97606.53;2083978;28;20312;-72
2022/12/12 00:08:08;;;;;;;0.50;0.50;;;;;;;18.61;60.31;97604.66;2083965;28;20075;-71
2022/12/12 00:09:10;;;;;;;1.00;0.50;;;;;;;18.58;60.24;97597.06;2081529;28;20214;-72
2022/12/12 00:10:11;;;;;;;0.77;0.68;;;;;;;18.59;60.34;97604.09;2088378;28;20052;-72
2022/12/12 00:11:13;;;;;;;0.57;0.57;;;;;;;18.57;60.22;97604.31;2089631;28;20051;-72
2022/12/12 00:12:14;;;;;;;1.33;0.65;;;;;;;18.54;60.45;97610.94;2087752;28;20044;-72
2022/12/12 00:13:16;;;;;;;;;;;;;;;18.43;60.46;97611.72;2083431;28;20052;-72
2022/12/12 00:14:18;;;;;;;1.15;1.05;;;;;;;18.43;60.46;97603.66;2086174;28;19929;-72
2022/12/12 00:15:19;;;;;;;0.50;0.50;;;;;;;18.49;60.48;97610.00;2091845;28;20052;-71
2022/12/12 00:16:21;;;;;;;;;;;;;;;18.36;60.82;97604.78;2091364;28;20070;-71
2022/12/12 00:17:22;;;;;;;0.60;0.47;;;;;;;18.41;60.67;97611.13;2090632;28;19920;-72
2022/12/12 00:18:23;;;;;;;;;;;;;;;18.29;61.04;97607.56;2094151;28;20537;-72
2022/12/12 00:19:25;;;;;;;0.77;0.52;;;;;;;18.34;61.02;97605.03;2091823;28;19920;-72
2022/12/12 00:20:26;;;;;;;1.35;0.85;;;;;;;18.37;60.79;97603.75;2079483;28;20114;-72
2022/12/12 00:21:28;;;;;;;;;;;;;;;18.26;61.12;97599.97;2091494;28;20053;-72
2022/12/12 00:22:29;;;;;;;1.05;0.82;;;;;;;18.32;60.74;97601.75;2089067;28;20377;-72
2022/12/12 00:23:32;;;;;;;;;;;;;;;18.24;60.86;97604.75;2090082;28;20048;-72
2022/12/12 00:24:33;;;;;;;1.77;0.75;;;;;;;18.27;60.88;97604.28;2088823;28;19924;-72
2022/12/12 00:25:34;;;;;;;;;;;;;;;18.19;60.96;97597.41;2091380;28;20044;-72
2022/12/12 00:26:36;;;;;;;0.60;0.60;;;;;;;18.25;60.87;97611.78;2089317;28;20495;-72
2022/12/12 00:27:37;;;;;;;1.42;0.98;;;;;;;18.29;60.91;97607.56;2091332;28;20066;-72
2022/12/12 00:28:38;;;;;;;;;;;;;;;18.20;61.13;97614.31;2091325;28;20505;-71
2022/12/12 00:29:39;;;;;;;0.63;0.52;;;;;;;18.23;60.88;97611.16;2084330;28;20112;-72
2022/12/12 00:30:41;;;;;;;;;;;;;;;18.17;61.05;97612.06;2084711;28;21853;-72
2022/12/12 00:31:41;;;;;;;0.90;0.65;;;;;;;18.23;60.72;97616.53;2082624;28;19936;-72
2022/12/12 00:32:43;;;;;;;;;;;;;;;18.16;60.96;97610.41;2086657;28;20052;-72
2022/12/12 00:33:46;;;;;;;0.93;0.63;;;;;;;18.20;61.17;97608.94;2090983;28;19928;-72
2022/12/12 00:34:48;;;;;;;0.70;0.60;;;;;;;18.25;60.84;97606.41;2082058;28;20056;-72
2022/12/12 00:35:50;;;;;;;1.02;0.65;;;;;;;18.25;60.81;97611.78;2085206;28;20044;-72
2022/12/12 00:36:51;;;;;;;0.77;0.57;;;;;;;18.28;60.65;97611.31;2083082;28;20059;-72
2022/12/12 00:37:52;;;;;;;1.27;0.55;;;;;;;18.26;60.65;97608.03;2082408;28;20051;-72
2022/12/12 00:38:56;;;;;;;;;;;;;;;18.14;60.88;97609.84;2084277;28;20417;-72
2022/12/12 00:39:56;;;;;;;0.70;0.50;;;;;;;18.16;61.06;97608.56;2083562;28;20414;-72
2022/12/12 00:40:59;;;;;;;;;;;;;;;18.07;61.31;97609.91;2084016;28;21958;-72
2022/12/12 00:42:00;;;;;;;0.80;0.55;;;;;;;18.11;60.96;97611.13;2088534;28;19927;-72
2022/12/12 00:43:01;;;;;;;;;;;;;;;18.02;61.43;97613.25;2082493;28;20088;-72
2022/12/12 00:44:02;;;;;;;;;;;;;;;17.96;61.31;97606.09;2089639;28;19924;-72
2022/12/12 00:45:04;;;;;;;0.68;0.60;;;;;;;18.03;61.42;97611.41;2090314;28;20001;-72
2022/12/12 00:46:05;;;;;;;1.25;0.57;;;;;;;18.09;61.01;97610.50;2091193;28;20048;-72
2022/12/12 00:47:07;;;;;;;;;;;;;;;17.99;61.36;97607.53;2089243;28;20080;-72
2022/12/12 00:48:08;;;;;;;0.75;0.60;;;;;;;18.04;61.05;97610.38;2087389;28;19936;-72
2022/12/12 00:49:11;;;;;;;1.08;0.63;;;;;;;18.06;60.93;97611.78;2088503;28;20048;-72
2022/12/12 00:50:12;;;;;;;0.70;0.50;;;;;;;18.09;60.92;97616.69;2084326;28;20049;-72
2022/12/12 00:51:19;;;;;;;;;;;;;;;17.97;61.07;97610.44;2090283;28;20058;-72
2022/12/12 00:52:19;;;;;;;0.65;0.50;;;;;;;18.02;61.25;97617.81;2084244;28;20532;-72
2022/12/12 00:53:21;;;;;;;;;;;;;;;17.92;61.43;97623.72;2085192;28;20629;-72
2022/12/12 00:54:23;;;;;;;0.80;0.70;;;;;;;17.97;61.35;97620.34;2085912;28;19970;-71
2022/12/12 00:55:25;;;;;;;0.60;0.52;;;;;;;17.98;61.14;97622.81;2082252;28;20048;-72
2022/12/12 00:56:28;;;;;;;0.73;0.60;;;;;;;18.01;61.19;97625.03;2085198;28;20110;-72
2022/12/12 00:57:30;;;;;;;0.90;0.73;;;;;;;18.03;60.88;97627.50;2087099;28;20059;-72
2022/12/12 00:58:31;;;;;;;0.32;0.32;;;;;;;18.02;61.06;97625.84;2089508;28;20157;-72
2022/12/12 00:59:33;;;;;;;0.52;0.50;;;;;;;18.02;60.96;97623.19;2090020;28;20044;-72
2022/12/12 01:00:34;;;;;;;0.52;0.52;;;;;;;18.02;61.00;97624.00;2088986;28;20052;-72
2022/12/12 01:01:35;;;;;;;;;;;;;;;17.88;61.39;97630.56;2086410;28;20150;-72
2022/12/12 01:02:36;;;;;;;;;;;;;;;17.77;61.54;97625.91;2090521;28;20346;-72
2022/12/12 01:03:40;;;;;;;1.37;0.67;;;;;;;17.83;61.56;97630.44;2090959;28;19955;-72
2022/12/12 01:04:41;;;;;;;0.85;0.65;;;;;;;17.91;61.20;97622.06;2091076;28;20129;-72
2022/12/12 01:05:42;;;;;;;;;;;;;;;17.81;61.29;97633.31;2091313;28;20581;-72
2022/12/12 01:06:43;;;;;;;2.17;0.55;;;;;;;17.82;61.47;97626.91;2087610;28;19929;-72
2022/12/12 01:07:44;;;;;;;;;;;;;;;17.74;61.65;97624.47;2088020;28;20101;-72
2022/12/12 01:08:45;;;;;;;1.33;0.70;;;;;;;17.78;61.43;97616.81;2084090;28;20397;-72
2022/12/12 01:09:48;;;;;;;;;;;;;;;17.72;61.67;97623.06;2083432;28;20040;-72
2022/12/12 01:10:49;;;;;;;1.42;0.73;;;;;;;17.77;61.57;97620.53;2087771;28;19927;-71
2022/12/12 01:11:50;;;;;;;;;;;;;;;17.69;61.54;97624.34;2089280;28;20048;-72
2022/12/12 01:12:51;;;;;;;0.57;0.50;;;;;;;17.74;61.47;97627.16;2088786;28;19928;-72
2022/12/12 01:13:54;;;;;;;;;;;;;;;17.69;61.55;97628.88;2085181;28;20052;-72
2022/12/12 01:14:55;;;;;;;1.02;0.60;;;;;;;17.74;61.47;97626.34;2086263;28;19929;-72
2022/12/12 01:15:57;;;;;;;;;;;;;;;17.65;61.49;97623.94;2085696;28;20045;-72
2022/12/12 01:16:59;;;;;;;0.43;0.35;;;;;;;17.73;61.54;97627.41;2084799;28;20314;-72
2022/12/12 01:17:59;;;;;;;0.40;0.40;;;;;;;17.77;61.48;97623.22;2080705;28;20045;-72
2022/12/12 01:19:01;;;;;;;;;;;;;;;17.67;61.62;97625.59;2083088;28;20059;-72
2022/12/12 01:20:02;;;;;;;0.80;0.70;;;;;;;17.70;61.59;97631.34;2087694;28;19932;-71
2022/12/12 01:21:08;;;;;;;0.70;0.60;;;;;;;17.74;61.22;97623.66;2084940;28;20655;-72
2022/12/12 01:22:09;;;;;;;1.08;0.88;;;;;;;17.77;61.15;97631.25;2093466;28;20051;-72
2022/12/12 01:23:11;;;;;;;;;;;;;;;17.63;61.64;97628.75;2084250;28;20062;-72
2022/12/12 01:24:11;;;;;;;0.77;0.77;;;;;;;17.68;61.56;97632.59;2084010;28;19936;-72
2022/12/12 01:25:15;;;;;;;;;;;;;;;17.61;61.54;97632.69;2088558;28;20083;-72
2022/12/12 01:26:20;;;;;;;0.55;0.55;;;;;;;17.65;61.50;97634.69;2087791;28;19921;-72
2022/12/12 01:27:21;;;;;;;0.80;0.40;;;;;;;17.67;61.47;97637.16;2083911;28;20230;-72
2022/12/12 01:28:22;;;;;;;;;;;;;;;17.58;61.53;97639.31;2081426;28;20402;-72
2022/12/12 01:29:23;;;;;;;1.25;0.55;;;;;;;17.65;61.56;97642.72;2084184;28;20285;-72
2022/12/12 01:30:26;;;;;;;0.82;0.60;;;;;;;17.69;61.38;97642.28;2085860;28;20075;-72
2022/12/12 01:31:28;;;;;;;0.82;0.52;;;;;;;17.70;61.16;97646.63;2085757;28;20048;-71
2022/12/12 01:32:28;;;;;;;0.50;0.50;;;;;;;17.71;61.13;97650.94;2086921;28;20048;-72
2022/12/12 01:33:30;;;;;;;;;;;;;;;17.57;61.49;97642.19;2087359;28;20613;-72
2022/12/12 01:34:31;;;;;;;0.82;0.50;;;;;;;17.59;61.44;97651.66;2084025;28;19973;-72
2022/12/12 01:35:33;;;;;;;;;;;;;;;17.50;61.84;97655.66;2087497;28;20044;-72
2022/12/12 01:36:34;;;;;;;0.95;0.60;;;;;;;17.52;61.65;97653.56;2082797;28;19924;-72
2022/12/12 01:37:36;;;;;;;;;;;;;;;17.47;61.93;97656.09;2087831;28;20102;-72
2022/12/12 01:38:36;;;;;;;;;;;;;;;17.39;62.13;97659.06;2083903;28;19924;-72
2022/12/12 01:39:38;;;;;;;1.17;0.93;;;;;;;17.46;61.88;97659.00;2078198;28;19939;-72
2022/12/12 01:40:40;;;;;;;1.48;0.80;;;;;;;17.52;61.66;97650.06;2084855;28;20113;-71
2022/12/12 01:41:43;;;;;;;0.68;0.68;;;;;;;17.54;61.75;97653.34;2082619;28;20388;-72
2022/12/12 01:42:44;;;;;;;0.80;0.60;;;;;;;17.57;61.61;97655.59;2084907;28;20083;-71
2022/12/12 01:43:46;;;;;;;;;;;;;;;17.44;61.60;97664.59;2088631;28;20710;-72
2022/12/12 01:44:49;;;;;;;0.85;0.63;;;;;;;17.48;61.60;97652.38;2085149;28;19939;-71
2022/12/12 01:46:35;;;;;;;1.25;0.73;;;;;;;17.45;61.58;97665.41;2088121;28;20048;-72
2022/12/12 01:47:36;;;;;;;0.50;0.45;;;;;;;17.46;61.79;97659.81;2085124;28;20044;-72
2022/12/12 01:48:40;;;;;;;;;;;;;;;17.34;62.10;97664.25;2087618;28;20561;-72
2022/12/12 01:49:44;;;;;;;1.35;0.52;;;;;;;17.40;61.95;97666.06;2086011;28;19932;-72
2022/12/12 01:50:45;;;;;;;0.50;0.50;;;;;;;17.43;61.98;97662.94;2085708;28;22015;-72
2022/12/12 01:51:49;;;;;;;0.75;0.60;;;;;;;17.46;61.67;97662.50;2087190;28;20160;-72
2022/12/12 01:52:50;;;;;;;0.82;0.60;;;;;;;17.47;61.61;97664.16;2086661;28;20056;-71
2022/12/12 01:53:54;;;;;;;;;;;;;;;17.37;61.72;97669.19;2086114;28;20056;-72
2022/12/12 01:55:00;;;;;;;1.05;0.60;;;;;;;17.40;61.74;97668.75;2079752;28;20213;-72
2022/12/12 01:56:07;;;;;;;0.73;0.63;;;;;;;17.39;61.83;97667.91;2082795;28;20070;-72
2022/12/12 01:57:13;;;;;;;0.93;0.50;;;;;;;17.41;61.56;97673.03;2086472;28;20052;-72
2022/12/12 01:58:15;;;;;;;0.88;0.68;;;;;;;17.42;61.66;97670.16;2090593;28;20048;-72
2022/12/12 01:59:21;;;;;;;0.55;0.47;;;;;;;17.42;61.62;97672.03;2077707;28;20048;-72
2022/12/12 02:00:22;;;;;;;0.93;0.60;;;;;;;17.43;61.48;97673.66;2089674;28;20049;-72
2022/12/12 02:01:24;;;;;;;0.50;0.50;;;;;;;17.45;61.62;97671.59;2091418;28;20041;-72
2022/12/12 02:02:26;;;;;;;1.88;0.60;;;;;;;17.43;61.56;97673.66;2090861;28;20060;-72
2022/12/12 02:03:28;;;;;;;0.77;0.68;;;;;;;17.41;61.52;97679.25;2090419;28;20048;-71
2022/12/12 02:04:29;;;;;;;1.90;0.40;;;;;;;17.41;61.54;97675.72;2087976;28;20063;-72
2022/12/12 02:05:33;;;;;;;;;;;;;;;17.27;61.84;97675.00;2088928;28;20072;-72
2022/12/12 02:06:34;;;;;;;0.80;0.60;;;;;;;17.32;61.83;97679.72;2087902;28;19945;-71
2022/12/12 02:07:36;;;;;;;0.35;0.35;;;;;;;17.34;61.81;97685.69;2090395;28;20094;-72
2022/12/12 02:08:38;;;;;;;0.52;0.52;;;;;;;17.35;61.68;97676.59;2084190;28;20052;-72
2022/12/12 02:09:40;;;;;;;0.63;0.47;;;;;;;17.37;61.58;97679.91;2089970;28;20087;-72
2022/12/12 02:10:43;;;;;;;0.50;0.50;;;;;;;17.38;61.69;97686.88;2081810;28;20057;-72
2022/12/12 02:11:48;;;;;;;0.57;0.55;;;;;;;17.37;61.52;97687.94;2087801;28;20399;-72
2022/12/12 02:12:49;;;;;;;0.70;0.45;;;;;;;17.34;61.67;97693.75;2086299;28;20055;-72
2022/12/12 02:13:50;;;;;;;;;;;;;;;17.22;61.87;97695.47;2090476;28;20521;-72
2022/12/12 02:14:52;;;;;;;0.45;0.45;;;;;;;17.28;61.75;97702.66;2088659;28;19924;-72
2022/12/12 02:16:01;;;;;;;1.13;0.52;;;;;;;17.27;61.73;97691.09;2085485;28;20941;-72
2022/12/12 02:17:32;;;;;;;1.45;0.75;;;;;;;17.24;61.74;97702.25;2088397;28;20153;-72
2022/12/12 02:18:41;;;;;;;0.90;0.70;;;;;;;17.24;61.80;97696.06;2085297;28;20502;-72
2022/12/12 02:20:20;;;;;;;0.68;0.47;;;;;;;17.20;61.82;97699.19;2089790;28;20048;-71
2022/12/12 02:21:29;;;;;;;0.50;0.50;;;;;;;17.23;61.83;97699.81;2090644;28;20059;-72
2022/12/12 02:22:56;;;;;;;0.60;0.50;;;;;;;17.20;61.81;97695.69;2090938;28;20421;-71
2022/12/12 02:24:20;;;;;;;0.30;0.30;;;;;;;17.19;61.57;97697.56;2088605;28;20048;-72
2022/12/12 02:25:51;;;;;;;0.82;0.60;;;;;;;17.14;61.98;97700.06;2074853;28;20052;-72
2022/12/12 02:27:24;;;;;;;0.45;0.40;;;;;;;17.11;61.96;97694.31;2087648;28;20143;-72
2022/12/12 02:29:06;;;;;;;0.50;0.50;;;;;;;17.12;61.96;97694.09;2084444;28;20048;-72
2022/12/12 02:30:15;;;;;;;0.50;0.47;;;;;;;17.11;61.82;97697.81;2081152;28;20052;-72
2022/12/12 02:31:23;;;;;;;0.70;0.40;;;;;;;17.17;61.75;97696.13;2086078;28;20067;-72
2022/12/12 02:32:30;;;;;;;0.65;0.52;;;;;;;17.14;61.87;97686.66;2086041;28;20505;-72
2022/12/12 02:33:39;;;;;;;0.45;0.45;;;;;;;17.15;61.86;97695.53;2083199;28;20920;-72
2022/12/12 02:34:48;;;;;;;0.65;0.65;;;;;;;17.14;61.77;97689.34;2081923;28;20778;-72
2022/12/12 02:36:02;;;;;;;0.82;0.47;;;;;;;17.13;61.75;97690.41;2086262;28;20167;-72
2022/12/12 02:37:08;;;;;;;1.10;0.55;;;;;;;17.14;61.69;97692.03;2086077;28;20061;-72
2022/12/12 02:38:19;;;;;;;0.50;0.50;;;;;;;17.15;61.63;97696.34;2088067;28;20048;-72
2022/12/12 02:39:27;;;;;;;0.50;0.43;;;;;;;17.15;61.58;97696.34;2084620;28;20684;-72
2022/12/12 02:40:35;;;;;;;0.50;0.50;;;;;;;17.12;61.77;97693.28;2082183;28;20048;-72
2022/12/12 02:41:42;;;;;;;0.98;0.50;;;;;;;17.13;61.69;97695.75;2084404;28;20058;-72
2022/12/12 02:42:48;;;;;;;0.60;0.60;;;;;;;17.11;61.76;97689.78;2087900;28;20056;-72
2022/12/12 02:44:01;;;;;;;0.50;0.38;;;;;;;17.05;61.91;97681.78;2087991;28;20164;-71
2022/12/12 02:45:08;;;;;;;1.15;0.90;;;;;;;17.09;61.73;97686.50;2085728;28;20044;-72
2022/12/12 02:46:17;;;;;;;0.93;0.65;;;;;;;17.11;61.69;97686.28;2086334;28;20051;-72
2022/12/12 02:47:22;;;;;;;1.25;0.85;;;;;;;17.09;61.77;97688.34;2087789;28;20048;-72
2022/12/12 02:48:29;;;;;;;0.80;0.75;;;;;;;17.10;61.91;97690.81;2085055;28;20143;-71
2022/12/12 02:49:36;;;;;;;0.68;0.40;;;;;;;17.08;61.65;97687.53;2085075;28;20052;-71
2022/12/12 02:50:39;;;;;;;0.77;0.77;;;;;;;17.09;61.74;97691.84;2084411;28;20122;-72
2022/12/12 02:51:43;;;;;;;0.60;0.40;;;;;;;17.09;61.59;97688.34;2090065;28;20430;-72
2022/12/12 02:52:45;;;;;;;0.50;0.50;;;;;;;17.11;61.55;97689.78;2085513;28;20124;-72
2022/12/12 02:53:47;;;;;;;0.40;0.40;;;;;;;17.09;61.68;97694.53;2083809;28;20052;-72
2022/12/12 02:54:48;;;;;;;0.40;0.40;;;;;;;17.08;61.77;97692.09;2087429;28;20774;-71
2022/12/12 02:55:50;;;;;;;;;;;;;;;16.97;61.91;97685.56;2088870;28;20052;-72
2022/12/12 02:56:53;;;;;;;0.47;0.47;;;;;;;17.00;61.93;97686.97;2090007;28;19929;-72
2022/12/12 02:57:55;;;;;;;0.65;0.65;;;;;;;17.02;61.88;97692.91;2090117;28;20434;-72
2022/12/12 02:58:57;;;;;;;0.52;0.52;;;;;;;17.03;61.71;97687.38;2090379;28;20046;-72
2022/12/12 03:00:02;;;;;;;0.47;0.47;;;;;;;17.02;61.61;97683.06;2085723;28;20102;-72
2022/12/12 03:01:14;;;;;;;0.40;0.40;;;;;;;17.04;61.63;97688.19;2082244;28;20147;-72
2022/12/12 03:02:39;;;;;;;0.57;0.38;;;;;;;16.97;61.78;97690.91;2082713;28;20501;-72
2022/12/12 03:08:38;;;;;;;0.40;0.40;;;;;;;16.88;61.89;97693.03;2084613;28;20044;-72
2022/12/12 03:09:57;;;;;;;0.55;0.50;;;;;;;16.89;61.97;97689.31;2086083;28;20060;-71
2022/12/12 03:11:01;;;;;;;0.50;0.50;;;;;;;16.91;61.84;97689.06;2082420;28;20190;-72
2022/12/12 03:12:11;;;;;;;0.50;0.40;;;;;;;16.90;62.02;97692.78;2078939;28;20070;-71
2022/12/12 03:13:22;;;;;;;0.80;0.60;;;;;;;16.88;61.61;97689.50;2087021;28;20367;-72
2022/12/12 03:14:31;;;;;;;1.27;0.60;;;;;;;16.88;62.07;97690.34;2083302;28;20059;-71
2022/12/12 03:15:42;;;;;;;1.17;0.50;;;;;;;16.86;61.88;97686.25;2081907;28;20595;-71
2022/12/12 03:16:48;;;;;;;;;;;;;;;16.73;62.29;97689.78;2085639;28;20064;-72
2022/12/12 03:17:57;;;;;;;0.38;0.38;;;;;;;16.79;62.13;97696.16;2087397;28;19925;-72
2022/12/12 03:19:08;;;;;;;0.77;0.75;;;;;;;16.82;62.14;97695.72;2088191;28;21029;-72
2022/12/12 03:20:12;;;;;;;;;;;;;;;16.68;62.45;97695.75;2083953;28;20036;-72
2022/12/12 03:21:17;;;;;;;0.60;0.43;;;;;;;16.79;62.20;97698.84;2083794;28;19956;-72
2022/12/12 03:22:25;;;;;;;0.90;0.57;;;;;;;16.84;62.01;97697.16;2084371;28;21064;-71
2022/12/12 03:23:31;;;;;;;1.02;0.65;;;;;;;16.84;61.93;97688.31;2084486;28;20517;-71
2022/12/12 03:24:38;;;;;;;0.60;0.57;;;;;;;16.85;61.75;97688.06;2086777;28;20441;-72
2022/12/12 03:25:47;;;;;;;1.23;0.95;;;;;;;16.85;61.86;97692.63;2085692;28;20139;-71
2022/12/12 03:26:54;;;;;;;0.40;0.40;;;;;;;16.84;61.81;97696.34;2084930;28;20048;-72
2022/12/12 03:28:02;;;;;;;0.32;0.32;;;;;;;16.85;61.71;97697.97;2084337;28;20056;-72
2022/12/12 03:29:08;;;;;;;0.60;0.38;;;;;;;16.83;61.74;97694.72;2084967;28;20506;-72
2022/12/12 03:30:13;;;;;;;0.43;0.43;;;;;;;16.80;61.90;97698.63;2083534;28;20044;-72
2022/12/12 03:31:18;;;;;;;0.65;0.50;;;;;;;16.80;61.95;97695.13;2083808;28;20110;-72
2022/12/12 03:32:25;;;;;;;0.82;0.60;;;;;;;16.79;61.64;97691.63;2085740;28;20081;-72
2022/12/12 03:33:33;;;;;;;0.47;0.40;;;;;;;16.80;61.75;97692.44;2088450;28;20044;-72
2022/12/12 03:34:39;;;;;;;0.50;0.50;;;;;;;16.78;61.82;97691.84;2084299;28;20123;-71
2022/12/12 03:35:45;;;;;;;0.50;0.32;;;;;;;16.76;61.95;97686.66;2082820;28;20067;-72
2022/12/12 03:36:52;;;;;;;1.13;0.85;;;;;;;16.78;61.81;97687.31;2087339;28;20080;-71
2022/12/12 03:38:00;;;;;;;0.82;0.60;;;;;;;16.77;61.95;97688.34;2083407;28;22474;-72
2022/12/12 03:39:07;;;;;;;0.52;0.40;;;;;;;16.74;61.97;97689.56;2087315;28;20167;-72
2022/12/12 03:40:12;;;;;;;0.65;0.60;;;;;;;16.75;61.83;97693.88;2080544;28;20052;-72
2022/12/12 03:41:20;;;;;;;0.45;0.45;;;;;;;16.77;61.68;97692.88;2081665;28;20059;-72
2022/12/12 03:42:28;;;;;;;1.02;0.50;;;;;;;16.74;61.72;97694.09;2082613;28;20106;-72
2022/12/12 03:43:33;;;;;;;0.73;0.50;;;;;;;16.77;61.98;97690.19;2080185;28;20546;-72
2022/12/12 03:44:40;;;;;;;0.63;0.40;;;;;;;16.75;61.75;97698.41;2084684;28;20045;-71
2022/12/12 03:45:51;;;;;;;0.77;0.77;;;;;;;16.73;61.83;97701.31;2086249;28;20052;-72
2022/12/12 03:46:55;;;;;;;0.40;0.40;;;;;;;16.71;61.75;97702.53;2081818;28;20737;-72
2022/12/12 03:48:03;;;;;;;0.80;0.60;;;;;;;16.70;61.83;97704.41;2084655;28;20306;-72
2022/12/12 03:49:11;;;;;;;0.50;0.50;;;;;;;16.69;61.84;97708.13;2087865;28;20459;-72
2022/12/12 03:50:19;;;;;;;0.90;0.60;;;;;;;16.70;61.74;97717.78;2089025;28;20059;-72
2022/12/12 03:51:25;;;;;;;0.40;0.40;;;;;;;16.68;62.02;97717.19;2085872;28;20056;-72
2022/12/12 03:52:31;;;;;;;0.60;0.55;;;;;;;16.70;61.77;97722.34;2082895;28;20102;-71
2022/12/12 03:53:37;;;;;;;0.70;0.63;;;;;;;16.69;61.72;97720.69;2087354;28;20055;-72
2022/12/12 03:54:46;;;;;;;0.73;0.73;;;;;;;16.68;61.81;97714.50;2087850;28;20061;-71
2022/12/12 03:55:53;;;;;;;0.63;0.52;;;;;;;16.68;61.79;97719.84;2086913;28;20059;-72
2022/12/12 03:57:00;;;;;;;0.35;0.30;;;;;;;16.67;62.10;97723.56;2087484;28;21113;-72
2022/12/12 03:58:09;;;;;;;1.50;0.68;;;;;;;16.63;61.93;97719.69;2083219;28;20052;-72
2022/12/12 03:59:13;;;;;;;0.43;0.43;;;;;;;16.66;61.93;97727.31;2084907;28;20044;-71
2022/12/12 04:00:17;;;;;;;0.55;0.52;;;;;;;16.65;61.86;97714.94;2086327;28;20417;-72
2022/12/12 04:01:20;;;;;;;0.30;0.30;;;;;;;16.67;61.80;97717.41;2089575;28;20056;-72
2022/12/12 04:02:27;;;;;;;0.50;0.50;;;;;;;16.65;61.70;97717.59;2086397;28;20060;-72
2022/12/12 04:03:36;;;;;;;0.30;0.30;;;;;;;16.63;61.64;97718.84;2085366;28;20052;-72
2022/12/12 04:04:45;;;;;;;0.30;0.30;;;;;;;16.62;61.88;97718.03;2085469;28;20057;-71
2022/12/12 04:07:22;;;;;;;0.75;0.50;;;;;;;16.57;61.95;97715.16;2092315;28;20484;-72
2022/12/12 04:08:23;;;;;;;0.50;0.50;;;;;;;16.58;61.93;97719.50;2086538;28;20140;-72
2022/12/12 04:13:46;;;;;;;0.40;0.40;;;;;;;16.46;62.23;97719.31;2081187;28;20057;-72
2022/12/12 04:15:16;;;;;;;0.68;0.57;;;;;;;16.48;62.16;97719.13;2086477;28;20421;-71
2022/12/12 04:16:26;;;;;;;0.52;0.40;;;;;;;16.47;62.18;97712.16;2086209;28;21519;-72
2022/12/12 04:17:35;;;;;;;0.40;0.38;;;;;;;16.46;62.19;97716.66;2088614;28;20067;-71
2022/12/12 04:18:43;;;;;;;0.38;0.35;;;;;;;16.48;62.02;97719.13;2088271;28;20474;-71
2022/12/12 04:24:28;;;;;;;0.90;0.60;;;;;;;16.74;61.41;97724.38;2081118;28;20049;-72
2022/12/12 04:26:37;;;;;;;0.73;0.45;;;;;;;16.86;61.05;97731.78;2083591;28;20816;-72
2022/12/12 04:27:04;;;;;;;0.55;0.40;;;;;;;16.89;60.97;97725.97;2085032;28;20053;-72
2022/12/12 04:28:06;;;;;;;0.30;0.30;;;;;;;16.91;60.87;97723.88;2087138;28;20056;-72
2022/12/12 04:29:20;;;;;;;0.73;0.40;;;;;;;16.96;60.74;97724.88;2078472;28;20052;-72
2022/12/12 04:30:21;;;;;;;0.77;0.40;;;;;;;17.00;60.85;97719.13;2087480;28;21643;-72
2022/12/12 04:31:24;;;;;;;;;;;;;;;16.95;60.90;97722.44;2088041;28;20889;-72
2022/12/12 04:32:32;;;;;;;0.65;0.47;;;;;;;16.98;60.95;97719.31;2086909;28;19974;-72
2022/12/12 04:33:41;;;;;;;0.73;0.50;;;;;;;17.02;60.77;97722.38;2089089;28;20490;-71
2022/12/12 04:34:52;;;;;;;1.63;0.50;;;;;;;17.05;60.72;97720.13;2082980;28;20048;-71
2022/12/12 04:35:55;;;;;;;0.40;0.40;;;;;;;17.06;60.71;97711.03;2084129;28;20052;-72
2022/12/12 04:36:57;;;;;;;0.68;0.40;;;;;;;17.09;60.66;97710.59;2086955;28;22188;-71
2022/12/12 04:38:02;;;;;;;0.30;0.30;;;;;;;17.11;60.66;97713.09;2086847;28;20049;-72
2022/12/12 04:39:06;;;;;;;0.70;0.40;;;;;;;17.13;60.49;97710.97;2087932;28;20060;-72
2022/12/12 04:40:11;;;;;;;0.82;0.40;;;;;;;17.12;60.54;97709.34;2081003;28;20071;-71
2022/12/12 04:41:15;;;;;;;1.20;0.52;;;;;;;17.15;60.55;97709.72;2087897;28;20059;-72
2022/12/12 04:42:21;;;;;;;1.85;0.32;;;;;;;17.16;60.42;97705.19;2081442;28;20056;-72
2022/12/12 04:43:27;;;;;;;0.50;0.50;;;;;;;17.14;60.60;97708.09;2074105;28;20455;-71
2022/12/12 04:44:32;;;;;;;0.35;0.30;;;;;;;17.18;60.39;97708.47;2083528;28;20053;-72
2022/12/12 04:45:35;;;;;;;0.40;0.40;;;;;;;17.19;60.28;97710.97;2087650;28;20059;-72
2022/12/12 04:46:40;;;;;;;0.68;0.60;;;;;;;17.22;60.46;97711.53;2086302;28;20804;-71
2022/12/12 04:47:43;;;;;;;0.55;0.30;;;;;;;17.24;60.40;97709.47;2082416;28;21438;-72
2022/12/12 04:48:51;;;;;;;0.65;0.50;;;;;;;17.24;60.22;97712.97;2082480;28;20927;-71
2022/12/12 04:49:56;;;;;;;0.50;0.30;;;;;;;17.20;60.33;97704.56;2081239;28;20060;-72
2022/12/12 04:51:00;;;;;;;0.98;0.77;;;;;;;17.17;60.50;97718.38;2087914;28;20048;-71
2022/12/12 04:52:04;;;;;;;0.52;0.40;;;;;;;17.20;60.59;97714.47;2083234;28;20733;-72
2022/12/12 04:53:11;;;;;;;0.57;0.30;;;;;;;17.23;60.52;97715.88;2086353;28;20072;-72
2022/12/12 04:54:18;;;;;;;0.40;0.40;;;;;;;17.24;60.70;97706.78;2084645;28;20040;-72
2022/12/12 04:55:23;;;;;;;0.45;0.45;;;;;;;17.26;60.40;97710.09;2076560;28;20410;-71
2022/12/12 04:56:29;;;;;;;0.35;0.35;;;;;;;17.29;60.56;97715.00;2080946;28;20121;-71
2022/12/12 04:57:38;;;;;;;0.63;0.40;;;;;;;17.32;60.58;97715.38;2086568;28;20074;-72
2022/12/12 04:58:39;;;;;;;0.43;0.30;;;;;;;17.34;60.67;97713.31;2080326;28;20067;-71
2022/12/12 04:59:41;;;;;;;0.38;0.38;;;;;;;17.35;60.69;97709.59;2083914;28;20179;-71
2022/12/12 05:00:50;;;;;;;0.38;0.38;;;;;;;17.36;60.79;97713.94;2085375;28;20056;-72
2022/12/12 05:01:55;;;;;;;0.30;0.30;;;;;;;17.40;60.66;97720.47;2084044;28;20600;-71
2022/12/12 05:03:04;;;;;;;0.57;0.50;;;;;;;17.46;60.38;97713.44;2078856;28;20386;-71
2022/12/12 05:04:12;;;;;;;0.28;0.28;;;;;;;17.50;60.54;97721.88;2087090;28;20064;-71
2022/12/12 05:05:18;;;;;;;0.88;0.60;;;;;;;17.50;60.68;97725.38;2085025;28;20053;-71
2022/12/12 05:06:26;;;;;;;0.32;0.30;;;;;;;17.53;60.51;97722.25;2086221;28;20098;-72
2022/12/12 05:07:36;;;;;;;0.68;0.50;;;;;;;17.60;60.48;97723.00;2081906;28;20101;-72
2022/12/12 05:08:40;;;;;;;1.10;0.30;;;;;;;17.58;60.65;97722.41;2082987;28;20056;-71
2022/12/12 05:09:43;;;;;;;0.30;0.30;;;;;;;17.64;60.52;97728.75;2085385;28;20076;-72
2022/12/12 05:10:48;;;;;;;0.22;0.20;;;;;;;17.66;60.45;97732.03;2086234;28;20060;-71
2022/12/12 05:11:50;;;;;;;0.60;0.60;;;;;;;17.65;60.45;97736.56;2083344;28;20057;-72
2022/12/12 05:12:57;;;;;;;0.63;0.50;;;;;;;17.71;60.26;97740.25;2084799;28;20591;-72
2022/12/12 05:13:59;;;;;;;0.50;0.50;;;;;;;17.78;60.14;97734.84;2088742;28;20076;-72
2022/12/12 05:15:01;;;;;;;0.40;0.30;;;;;;;17.79;60.23;97741.88;2086413;28;20498;-72
2022/12/12 05:16:09;;;;;;;0.57;0.57;;;;;;;17.79;60.37;97747.22;2085538;28;20806;-72
2022/12/12 05:17:16;;;;;;;0.60;0.40;;;;;;;17.83;60.31;97748.44;2085471;28;20044;-72
2022/12/12 05:18:17;;;;;;;0.40;0.30;;;;;;;17.84;60.12;97748.22;2087209;28;20056;-72
2022/12/12 05:19:19;;;;;;;0.47;0.25;;;;;;;17.88;60.01;97751.25;2089089;28;20094;-72
2022/12/12 05:20:21;;;;;;;0.17;0.17;;;;;;;17.89;60.02;97754.78;2089585;28;20052;-71
2022/12/12 05:21:23;;;;;;;0.70;0.35;;;;;;;17.91;60.13;97748.13;2089995;28;20044;-72
2022/12/12 05:22:24;;;;;;;0.73;0.68;;;;;;;17.91;60.21;97761.56;2090770;28;20066;-72
2022/12/12 05:23:25;;;;;;;;;;;;;;;17.81;60.42;97753.19;2090682;28;20121;-72
2022/12/12 05:24:30;;;;;;;0.43;0.30;;;;;;;17.85;60.39;97757.88;2085572;28;19936;-72
2022/12/12 05:25:32;;;;;;;0.73;0.73;;;;;;;17.92;60.38;97757.84;2084268;28;20055;-72
2022/12/12 05:26:35;;;;;;;0.43;0.30;;;;;;;17.97;60.32;97757.16;2088450;28;20045;-72
2022/12/12 05:27:36;;;;;;;0.52;0.40;;;;;;;18.01;60.30;97755.69;2091345;28;20055;-72